createdAt,value
2023-01-06T00:01:42.347Z,4.55
2023-01-06T00:06:46.307Z,8.13
2023-01-06T00:11:51.462Z,5.00
2023-01-06T00:16:55.332Z,6.05
2023-01-06T00:21:59.077Z,2.88
2023-01-06T00:27:04.190Z,5.95
2023-01-06T00:32:08.225Z,4.53
2023-01-06T00:37:12.862Z,3.30
2023-01-06T00:42:17.966Z,3.40
2023-01-06T00:47:21.681Z,2.20
2023-01-06T00:52:25.473Z,6.72
2023-01-06T00:57:30.582Z,2.72
2023-01-06T01:02:34.499Z,7.93
2023-01-06T01:07:38.444Z,3.88
2023-01-06T01:12:43.493Z,2.55
2023-01-06T01:17:47.232Z,6.72
2023-01-06T01:22:51.017Z,2.78
2023-01-06T01:27:56.127Z,4.88
2023-01-06T01:32:59.850Z,2.08
2023-01-06T01:38:03.589Z,5.78
2023-01-06T01:43:11.433Z,7.78
2023-01-06T01:48:26.014Z,1.58
2023-01-06T01:53:32.135Z,3.92
2023-01-06T01:58:41.263Z,3.28
2023-01-06T02:03:45.181Z,6.40
2023-01-06T02:08:56.488Z,2.75
2023-01-06T02:14:09.050Z,1.90
2023-01-06T02:19:32.066Z,4.13
2023-01-06T02:24:58.441Z,2.90
2023-01-06T02:30:30.307Z,4.57
2023-01-06T02:35:49.543Z,5.68
2023-01-06T02:41:04.940Z,5.00
2023-01-06T02:46:14.578Z,3.25
2023-01-06T02:51:25.799Z,4.35
2023-01-06T02:56:39.956Z,8.15
2023-01-06T03:01:47.949Z,3.45
2023-01-06T03:06:56.027Z,0.98
2023-01-06T03:12:04.101Z,3.83
2023-01-06T03:17:08.337Z,1.02
2023-01-06T03:22:14.111Z,0.95
2023-01-06T03:27:21.056Z,2.92
2023-01-06T03:32:29.721Z,5.73
2023-01-06T03:37:44.858Z,3.28
2023-01-06T03:43:09.562Z,3.78
2023-01-06T03:48:21.053Z,3.80
2023-01-06T03:53:35.446Z,2.40
2023-01-06T03:58:41.261Z,1.33
2023-01-06T04:03:48.164Z,1.92
2023-01-06T04:08:53.452Z,4.55
2023-01-06T04:13:57.369Z,1.95
2023-01-06T04:19:01.276Z,3.38
2023-01-06T04:24:07.330Z,2.03
2023-01-06T04:29:12.832Z,2.13
2023-01-06T04:34:19.489Z,2.30
2023-01-06T04:44:28.675Z,2.58
2023-01-06T04:49:32.344Z,0.98
2023-01-06T04:54:37.562Z,0.20
2023-01-06T04:59:41.300Z,2.67
2023-01-06T05:04:47.977Z,1.13
2023-01-06T05:09:53.235Z,0.40
2023-01-06T05:14:56.927Z,0.77
2023-01-06T05:20:00.559Z,1.27
2023-01-06T05:25:05.974Z,0.82
2023-01-06T05:30:10.357Z,0.77
2023-01-06T05:35:14.002Z,0.63
2023-01-06T05:40:19.198Z,1.80
2023-01-06T05:45:23.147Z,1.75
2023-01-06T05:50:26.826Z,0.52
2023-01-06T05:55:31.996Z,1.90
2023-01-06T06:00:35.648Z,0.95
2023-01-06T06:05:39.355Z,0.55
2023-01-06T06:10:44.453Z,2.17
2023-01-06T06:15:48.063Z,2.35
2023-01-06T06:20:51.829Z,3.28
2023-01-06T06:25:56.955Z,1.85
2023-01-06T06:31:06.551Z,1.08
2023-01-06T06:36:15.741Z,0.40
2023-01-06T06:41:21.517Z,2.13
2023-01-06T06:46:25.255Z,3.83
2023-01-06T06:51:31.743Z,0.43
2023-01-06T06:56:36.905Z,0.65
2023-01-06T07:01:40.694Z,2.10
2023-01-06T07:06:44.486Z,0.65
2023-01-06T07:11:49.521Z,3.70
2023-01-06T07:16:53.276Z,3.20
2023-01-06T07:21:56.960Z,2.10
2023-01-06T07:27:02.004Z,1.60
2023-01-06T07:32:06.812Z,2.70
2023-01-06T07:37:11.357Z,1.42
2023-01-06T07:42:16.548Z,2.97
2023-01-06T07:47:20.288Z,1.65
2023-01-06T07:52:23.994Z,1.73
2023-01-06T07:57:29.883Z,2.33
2023-01-06T08:02:33.692Z,1.75
2023-01-06T08:07:37.425Z,3.65
2023-01-06T08:12:42.431Z,1.92
2023-01-06T08:17:46.134Z,1.58
2023-01-06T08:22:49.850Z,1.60
2023-01-06T08:27:54.858Z,2.78
2023-01-06T08:32:59.070Z,1.88
2023-01-06T08:38:02.741Z,3.00
2023-01-06T08:43:07.786Z,2.72
2023-01-06T08:48:11.492Z,3.28
2023-01-06T08:53:15.142Z,2.67
2023-01-06T08:58:20.255Z,2.30
2023-01-06T09:03:24.187Z,3.95
2023-01-06T09:08:27.987Z,2.63
2023-01-06T09:13:33.129Z,4.45
2023-01-06T09:18:37.609Z,2.40
2023-01-06T09:23:41.367Z,4.90
2023-01-06T09:28:47.580Z,4.43
2023-01-06T09:33:51.330Z,6.27
2023-01-06T09:38:54.996Z,3.95
2023-01-06T09:44:06.843Z,5.07
2023-01-06T09:49:20.956Z,6.05
2023-01-06T09:54:30.532Z,1.50
2023-01-06T09:59:43.021Z,3.25
2023-01-06T10:04:46.707Z,6.10
2023-01-06T10:10:02.586Z,3.38
2023-01-06T10:15:20.118Z,6.80
2023-01-06T10:20:54.925Z,2.55
2023-01-06T10:26:06.934Z,4.28
2023-01-06T10:31:15.188Z,5.50
2023-01-06T10:36:22.141Z,14.23
2023-01-06T10:41:34.702Z,7.07
2023-01-06T10:46:40.611Z,5.30
2023-01-06T10:51:49.111Z,7.68
2023-01-06T10:56:56.398Z,7.80
2023-01-06T11:02:02.286Z,8.57
2023-01-06T11:07:11.223Z,6.63
2023-01-06T11:12:18.695Z,2.17
2023-01-06T11:17:24.409Z,1.83
2023-01-06T11:22:36.638Z,4.63
2023-01-06T11:27:40.583Z,4.43
2023-01-06T11:32:45.795Z,4.78
2023-01-06T11:37:49.759Z,2.22
2023-01-06T11:42:55.989Z,0.63
2023-01-06T11:48:01.325Z,1.77
2023-01-06T11:53:17.872Z,3.65
2023-01-06T11:58:29.892Z,4.18
2023-01-06T12:03:41.342Z,2.08
2023-01-06T12:08:50.671Z,3.88
2023-01-06T12:14:10.697Z,6.78
2023-01-06T12:19:25.037Z,1.05
2023-01-06T12:24:32.208Z,3.10
2023-01-06T12:34:47.736Z,3.22
2023-01-06T12:39:58.903Z,4.97
2023-01-06T12:45:09.698Z,5.30
2023-01-06T12:50:25.543Z,2.88
2023-01-06T12:55:37.353Z,7.55
2023-01-06T13:00:48.516Z,4.32
2023-01-06T13:06:15.684Z,3.70
2023-01-06T13:11:27.282Z,6.35
2023-01-06T13:16:39.588Z,4.15
2023-01-06T13:21:45.809Z,3.90
2023-01-06T13:27:11.430Z,6.40
2023-01-06T13:32:41.061Z,4.53
2023-01-06T13:38:00.784Z,6.25
2023-01-06T13:43:07.253Z,5.32
2023-01-06T13:48:16.314Z,8.37
2023-01-06T13:53:23.915Z,5.38
2023-01-06T13:58:38.220Z,5.95
2023-01-06T14:03:43.077Z,4.38
2023-01-06T14:08:53.126Z,2.75
2023-01-06T14:13:59.389Z,2.55
2023-01-06T14:19:08.486Z,8.60
2023-01-06T14:24:23.942Z,5.68
2023-01-06T14:30:05.980Z,3.15
2023-01-06T14:35:13.319Z,5.90
2023-01-06T14:40:23.677Z,9.02
2023-01-06T14:45:30.099Z,6.80
2023-01-06T14:50:47.157Z,3.13
2023-01-06T14:55:53.365Z,5.30
2023-01-06T15:00:57.781Z,5.88
2023-01-06T15:06:12.856Z,4.63
2023-01-06T15:11:29.657Z,5.00
2023-01-06T15:16:37.269Z,4.90
2023-01-06T15:21:43.557Z,6.03
2023-01-06T15:26:49.790Z,3.40
2023-01-06T15:31:55.238Z,2.42
2023-01-06T15:37:00.102Z,2.67
2023-01-06T15:42:09.822Z,2.33
2023-01-06T15:47:24.167Z,1.70
2023-01-06T15:52:30.886Z,2.00
2023-01-06T15:57:39.216Z,2.00
2023-01-06T16:02:43.089Z,1.95
2023-01-06T16:07:47.875Z,4.63
2023-01-06T16:13:20.736Z,2.38
2023-01-06T16:18:29.685Z,3.60
2023-01-06T16:23:35.317Z,4.15
2023-01-06T16:28:47.380Z,4.85
2023-01-06T16:33:51.153Z,5.82
2023-01-06T16:38:54.847Z,4.28
2023-01-06T16:43:59.901Z,5.03
2023-01-06T16:49:10.143Z,6.38
2023-01-06T16:54:13.898Z,4.85
2023-01-06T16:59:22.157Z,5.93
2023-01-06T17:04:28.846Z,5.97
2023-01-06T17:09:33.538Z,4.22
2023-01-06T17:14:39.056Z,5.22
2023-01-06T17:19:43.165Z,3.58
2023-01-06T17:24:46.892Z,5.47
2023-01-06T17:29:52.967Z,5.57
2023-01-06T17:34:59.290Z,3.40
2023-01-06T17:40:04.270Z,4.77
2023-01-06T17:45:16.589Z,3.83
2023-01-06T17:50:31.344Z,3.72
2023-01-06T17:55:44.623Z,2.90
2023-01-06T18:00:49.998Z,3.20
2023-01-06T18:06:20.404Z,3.75
2023-01-06T18:11:29.659Z,4.07
2023-01-06T18:16:36.327Z,2.88
2023-01-06T18:21:40.556Z,3.53
2023-01-06T18:26:49.983Z,4.03
2023-01-06T18:31:55.825Z,4.03
2023-01-06T18:37:01.550Z,2.35
2023-01-06T18:42:24.385Z,2.45
2023-01-06T18:47:31.772Z,2.10
2023-01-06T18:52:41.001Z,1.80
2023-01-06T18:57:46.311Z,3.88
2023-01-06T19:02:53.106Z,2.38
2023-01-06T19:07:58.135Z,6.07
2023-01-06T19:13:04.348Z,5.93
2023-01-06T19:18:15.737Z,5.70
2023-01-06T19:23:22.476Z,5.97
2023-01-06T19:28:30.077Z,5.70
2023-01-06T19:33:38.477Z,4.97
2023-01-06T19:38:43.871Z,5.20
2023-01-06T19:43:48.613Z,6.00
2023-01-06T19:48:55.671Z,6.72
2023-01-06T19:54:01.337Z,4.65
2023-01-06T19:59:11.526Z,4.30
2023-01-06T20:04:20.385Z,6.68
2023-01-06T20:09:24.079Z,5.10
2023-01-06T20:14:27.816Z,5.10
2023-01-06T20:19:32.904Z,5.65
2023-01-06T20:24:36.785Z,8.80
2023-01-06T20:29:40.527Z,5.25
2023-01-06T20:34:45.593Z,6.13
2023-01-06T20:39:49.280Z,6.22
2023-01-06T20:44:52.937Z,9.27
2023-01-06T20:49:58.155Z,6.80
2023-01-06T20:55:02.230Z,5.90
2023-01-06T21:00:08.026Z,8.25
2023-01-06T21:05:13.235Z,6.47
2023-01-06T21:10:16.977Z,6.93
2023-01-06T21:15:20.692Z,6.70
2023-01-06T21:20:25.813Z,6.85
2023-01-06T21:25:29.477Z,7.03
2023-01-06T21:30:33.480Z,7.88
2023-01-06T21:35:38.661Z,9.07
2023-01-06T21:40:42.414Z,7.50
2023-01-06T21:45:46.731Z,7.93
2023-01-06T21:50:52.198Z,6.05
2023-01-06T21:55:56.041Z,8.07
2023-01-06T22:00:59.792Z,11.35
2023-01-06T22:06:06.849Z,8.32
2023-01-06T22:11:11.284Z,7.78
2023-01-06T22:16:15.198Z,5.40
2023-01-06T22:21:20.394Z,7.03
2023-01-06T22:26:24.172Z,8.75
2023-01-06T22:31:28.022Z,11.10
2023-01-06T22:36:33.345Z,8.23
2023-01-06T22:41:37.192Z,7.55
2023-01-06T22:46:41.126Z,8.30
2023-01-06T22:51:46.247Z,6.18
2023-01-06T22:56:50.155Z,9.48
2023-01-06T23:01:54.043Z,8.40
2023-01-06T23:06:59.997Z,9.63
2023-01-06T23:12:03.857Z,8.98
2023-01-06T23:17:07.723Z,8.20
2023-01-06T23:22:13.056Z,8.63
2023-01-06T23:27:17.002Z,8.35
2023-01-06T23:32:21.396Z,7.93
2023-01-06T23:37:26.693Z,9.57
2023-01-06T23:42:34.421Z,7.18
2023-01-06T23:47:41.010Z,6.15
2023-01-06T23:52:46.263Z,9.52
2023-01-06T23:57:50.097Z,5.55
